El Cajon (6925) Station Data

Red Flag Warning: No
Fire Weather Zone: 250
SDGE Region: Eastern
Lat/Lon: 32.795/-116.973

Observations

Time Wind Speed/Gust Temp(F) RH Fuel Moist Fuel Temp(F) Dewpt(F) Tmax(F) Tmin(F) Accum Precip 10-min Precip SL Press(mb)
2/27 11:40pm 244 7 G 13 54° 94% - - 52° 57° 48.8° - - -
2/27 11:20pm 247 4 G 7 54° 94% - - 52° 57° 48.8° - - -
2/27 11:10pm 247 3 G 7 54° 94% - - 52° 57° 48.8° - - -
2/27 11:00pm 243 3 G 7 54° 94% - - 52° 57° 48.8° - - -
2/27 10:50pm 264 2 G 7 54° 94% - - 53° 57° 48.8° - - -
2/27 10:40pm 262 2 G 5 54° 94% - - 53° 57° 48.8° - - -
2/27 10:30pm 253 6 G 11 55° 93% - - 53° 57° 48.8° - - -
2/27 10:20pm 258 5 G 12 55° 93% - - 53° 57° 48.8° - - -
2/27 10:10pm 209 7 G 14 55° 92% - - 53° 57° 48.8° - - -
2/27 10:00pm 202 7 G 16 55° 91% - - 53° 57° 48.8° - - -
2/27 9:50pm 206 8 G 18 55° 90% - - 53° 57° 48.8° - - -
2/27 9:40pm 196 7 G 17 55° 90% - - 53° 57° 48.8° - - -
2/27 9:30pm 187 7 G 15 55° 90% - - 52° 57° 48.8° - - -
2/27 9:20pm 188 6 G 12 56° 90% - - 53° 57° 48.8° - - -
2/27 9:10pm 189 7 G 15 55° 90% - - 53° 57° 48.8° - - -
2/27 9:00pm 176 7 G 12 55° 91% - - 53° 57° 48.8° - - -
2/27 8:50pm 174 6 G 14 55° 91% - - 53° 57° 48.8° - - -
2/27 8:40pm 178 5 G 11 55° 90% - - 53° 57° 48.8° - - -
2/27 8:30pm 189 8 G 16 56° 90% - - 53° 57° 48.8° - - -
2/27 8:20pm 187 8 G 18 55° 90% - - 52° 57° 48.8° - - -
2/27 8:10pm 185 8 G 17 55° 90% - - 52° 57° 48.8° - - -
2/27 8:00pm 189 8 G 19 55° 91% - - 53° 57° 48.8° - - -
2/27 7:50pm 191 9 G 17 55° 91% - - 53° 57° 48.8° - - -
2/27 7:40pm 192 7 G 15 55° 92% - - 53° 57° 48.8° - - -
2/27 7:30pm 190 7 G 14 55° 93% - - 53° 57° 48.8° - - -
2/27 7:20pm 190 7 G 14 55° 92% - - 53° 57° 48.8° - - -
2/27 7:10pm 190 7 G 13 55° 92% - - 53° 57° 48.8° - - -
2/27 7:00pm 180 6 G 13 55° 93% - - 53° 57° 48.8° - - -
2/27 6:50pm 175 5 G 12 55° 93% - - 53° 57° 48.8° - - -
2/27 6:40pm 178 6 G 13 55° 93% - - 53° 57° 48.8° - - -
2/27 6:30pm 178 5 G 15 55° 92% - - 53° 57° 48.8° - - -
2/27 6:20pm 183 6 G 12 55° 92% - - 53° 57° 48.8° - - -
2/27 6:10pm 179 6 G 12 55° 92% - - 53° 57° 48.8° - - -
2/27 6:00pm 187 8 G 15 56° 92% - - 53° 57° 48.8° - - -
2/27 5:50pm 192 5 G 11 56° 92% - - 53° 57° 48.8° - - -
2/27 5:40pm 179 6 G 13 56° 91% - - 53° 57° 48.8° - - -
2/27 5:30pm 150 6 G 10 51° 96% - - 50° 52.9° 46.6° - - 1013.0
2/27 5:20pm 186 7 G 15 56° 91% - - 53° 57° 48.8° - - -
2/27 5:10pm 181 9 G 17 56° 92% - - 53° 57° 48.8° - - -
2/27 5:00pm 172 6 G 12 56° 92% - - 54° 57° 48.8° - - -
2/27 4:50pm 191 7 G 15 56° 91% - - 54° 57° 48.8° - - -
2/27 4:40pm 196 8 G 15 56° 90% - - 53° 57° 48.8° - - -
2/27 4:30pm 203 8 G 17 56° 91% - - 54° 57° 48.8° - - -
2/27 4:20pm 202 8 G 16 56° 91% - - 54° 57° 48.8° - - -
2/27 4:10pm 188 8 G 16 56° 91% - - 54° 57° 48.8° - - -
2/27 4:00pm 185 7 G 14 56° 91% - - 54° 57° 48.8° - - -
2/27 3:50pm 187 9 G 17 56° 91% - - 54° 57° 48.8° - - -
2/27 3:40pm 193 8 G 16 56° 91% - - 54° 57° 48.8° - - -
2/27 3:30pm 185 8 G 15 56° 92% - - 54° 57° 48.8° - - -
2/27 3:20pm 182 8 G 15 56° 92% - - 54° 57° 48.8° - - -
2/27 3:10pm 171 8 G 15 56° 92% - - 54° 57° 48.8° - - -
2/27 3:00pm 179 9 G 16 56° 91% - - 54° 57° 48.8° - - -
2/27 2:50pm 191 9 G 17 56° 91% - - 53° 57° 48.8° - - -
2/27 2:40pm 193 10 G 19 56° 92% - - 53° 57° 48.8° - - -
2/27 2:30pm 188 8 G 18 55° 92% - - 53° 57° 48.8° - - -
2/27 2:20pm 198 9 G 17 55° 92% - - 53° 57° 48.8° - - -
2/27 2:10pm 197 9 G 17 55° 92% - - 53° 57° 48.8° - - -
2/27 2:00pm 193 9 G 18 55° 91% - - 53° 57° 48.8° - - -
2/27 1:50pm 189 8 G 18 55° 92% - - 53° 57° 48.8° - - -
2/27 1:40pm 184 10 G 21 56° 91% - - 53° 57° 48.8° - - -
2/27 1:30pm 189 10 G 19 56° 91% - - 53° 57° 48.8° - - -
2/27 1:20pm 187 12 G 21 56° 91% - - 53° 57° 48.8° - - -
2/27 1:10pm 191 8 G 17 56° 91% - - 53° 57° 48.8° - - -
2/27 1:00pm 189 9 G 19 55° 91% - - 53° 57° 48.8° - - -
2/27 12:50pm 190 9 G 20 55° 90% - - 53° 57° 48.8° - - -
2/27 12:40pm 189 10 G 24 55° 91% - - 53° 57° 48.8° - - -
2/27 12:30pm 189 9 G 18 55° 91% - - 53° 57° 48.8° - - -
2/27 12:20pm 194 10 G 26 56° 91% - - 53° 57° 48.8° - - -
2/27 12:10pm 192 10 G 23 56° 91% - - 53° 57° 48.8° - - -
2/27 12:00pm 183 9 G 14 56° 92% - - 53° 57° 48.8° - - -
2/27 11:50am 183 6 G 13 55° 92% - - 53° 57° 48.8° - - -
2/27 11:40am 186 6 G 15 55° 93% - - 53° 57° 48.8° - - -
2/27 11:30am 188 5 G 12 55° 93% - - 53° 57° 48.8° - - -
2/27 11:20am 183 10 G 20 55° 92% - - 53° 57° 48.8° - - -
2/27 11:10am 193 8 G 18 55° 91% - - 53° 57° 48.8° - - -
2/27 11:00am 191 6 G 14 56° 93% - - 53° 57° 48.8° - - -
2/27 10:50am 198 8 G 16 56° 92% - - 53° 57° 48.8° - - -
2/27 10:40am 194 9 G 19 56° 92% - - 53° 57° 48.8° - - -
2/27 10:30am 205 9 G 20 55° 92% - - 53° 57° 48.8° - - -
2/27 10:20am 207 12 G 23 55° 91% - - 53° 57° 48.8° - - -
2/27 10:10am 208 13 G 25 56° 92% - - 54° 57° 48.8° - - -
2/27 10:00am 204 8 G 18 56° 93% - - 54° 57° 48.8° - - -
2/27 9:50am 205 7 G 16 56° 93% - - 54° 57° 48.8° - - -
2/27 9:40am 199 9 G 17 56° 93% - - 54° 57° 48.8° - - -
2/27 9:30am 206 9 G 17 56° 92% - - 54° 57° 48.8° - - -
2/27 9:20am 198 8 G 14 56° 92% - - 54° 57° 48.8° - - -
2/27 9:10am 201 9 G 18 56° 91% - - 54° 57° 48.8° - - -
2/27 9:00am 196 7 G 16 56° 92% - - 54° 56.9° 48.8° - - -
2/27 8:50am 190 7 G 16 56° 92% - - 54° 56.8° 48.8° - - -
2/27 8:40am 190 8 G 17 56° 93% - - 54° 56.8° 48.8° - - -
2/27 8:30am 178 6 G 13 56° 93% - - 54° 56.8° 48.8° - - -
2/27 8:20am 184 7 G 15 56° 94% - - 54° 56.8° 48.8° - - -
2/27 8:10am 174 5 G 9 56° 93% - - 54° 56.8° 48.8° - - -
2/27 8:00am 184 8 G 16 56° 93% - - 54° 56.8° 48.8° - - -
2/27 7:50am 182 5 G 14 56° 93% - - 54° 56.8° 48.8° - - -
2/27 7:40am 185 6 G 11 56° 93% - - 54° 56.8° 48.8° - - -
2/27 7:30am 185 7 G 15 56° 94% - - 54° 56.8° 48.8° - - -
2/27 7:20am 185 6 G 13 56° 94% - - 54° 56.8° 48.8° - - -
2/27 7:10am 178 5 G 12 56° 93% - - 54° 56.8° 48.8° - - -
2/27 7:00am 183 8 G 15 56° 93% - - 54° 56.8° 48.8° - - -
2/27 6:50am 177 7 G 14 56° 93% - - 54° 56.8° 48.8° - - -
2/27 6:40am 185 8 G 16 56° 93% - - 54° 56.8° 48.8° - - -
2/27 6:30am 184 7 G 15 56° 93% - - 54° 56.8° 48.8° - - -
2/27 6:20am 184 8 G 17 56° 93% - - 54° 56.8° 48.8° - - -
2/27 6:10am 196 7 G 12 56° 93% - - 54° 56.8° 48.8° - - -
2/27 6:00am 203 8 G 16 56° 94% - - 54° 56.7° 48.8° - - -
2/27 5:50am 195 4 G 9 56° 95% - - 54° 56.2° 48.8° - - -
2/27 5:40am 192 5 G 11 55° 95% - - 54° 56.2° 48.8° - - -
2/27 5:30am 186 5 G 11 55° 95% - - 54° 55.7° 48.8° - - -
2/27 5:20am 181 6 G 13 55° 95% - - 54° 55.7° 48.8° - - -
2/27 5:10am 181 6 G 15 55° 95% - - 54° 55.6° 48.8° - - -
2/27 5:00am 170 5 G 14 55° 96% - - 54° 55.4° 48.8° - - -
2/27 4:50am 175 5 G 11 54° 97% - - 53° 55.1° 48.8° - - -
2/27 4:40am 165 5 G 15 53° 97% - - 52° 54.9° 48.8° - - -
2/27 4:30am 170 1 G 3 52° 97% - - 51° 52.2° 48.8° - - -
2/27 4:20am 187 1 G 3 51° 97% - - 50° 51.7° 48.8° - - -
2/27 4:10am 133 1 G 3 51° 97% - - 50° 51.5° 48.8° - - -
2/27 4:00am 153 2 G 3 51° 97% - - 50° 51.5° 48.8° - - -
2/27 3:50am 142 2 G 3 51° 97% - - 50° 51.5° 48.8° - - -
2/27 3:40am 94 1 G 2 51° 97% - - 50° 51.3° 48.8° - - -
2/27 3:30am 63 1 G 2 51° 97% - - 50° 51.3° 48.8° - - -
2/27 3:20am 58 2 G 3 51° 97% - - 50° 51.3° 48.8° - - -
2/27 3:10am 34 1 G 3 51° 97% - - 50° 51.1° 48.8° - - -
2/27 3:00am 3 2 G 3 51° 97% - - 50° 51.1° 48.8° - - -
2/27 2:50am 23 1 G 3 50° 97% - - 50° 51.1° 48.8° - - -
2/27 2:40am 59 1 G 3 50° 97% - - 49° 51° 48.8° - - -
2/27 2:30am 111 1 G 3 50° 97% - - 49° 51° 48.8° - - -
2/27 2:20am 123 2 G 2 50° 97% - - 49° 51° 48.8° - - -
2/27 2:10am 55 0 G 2 50° 97% - - 49° 51° 48.8° - - -
2/27 2:00am 41 1 G 2 50° 97% - - 49° 50.9° 48.8° - - -
2/27 1:50am 8 0 G 2 50° 97% - - 49° 50.7° 48.8° - - -
2/27 1:40am 15 1 G 2 50° 97% - - 49° 50.6° 48.8° - - -
2/27 1:30am 350 1 G 3 50° 97% - - 49° 50.6° 48.8° - - -
2/27 1:20am 352 1 G 3 50° 96% - - 49° 50.6° 48.8° - - -
2/27 1:10am 349 2 G 3 50° 96% - - 49° 50.3° 48.8° - - -
2/27 1:00am 2 2 G 3 50° 96% - - 49° 50.3° 48.8° - - -
2/27 12:50am 353 2 G 4 50° 96% - - 49° 50.3° 48.8° - - -
2/27 12:40am 344 3 G 4 50° 96% - - 49° 50.2° 48.8° - - -
2/27 12:30am 342 2 G 3 49° 96% - - 48° 50° 48.8° - - -
2/27 12:20am 354 2 G 3 49° 96% - - 48° 50° 48.8° - - -
2/27 12:10am 350 1 G 2 49° 96% - - 48° 50° 48.8° - - -
2/27 12:00am 341 1 G 2 49° 95% - - 48° 58.2° 48.5° - - -
2/26 11:50pm 351 3 G 4 49° 95% - - 48° 58.2° 48.5° - - -
2/26 11:40pm 353 4 G 7 49° 94% - - 48° 58.2° 48.5° - - -
2/26 11:30pm 355 3 G 5 50° 93% - - 49° 58.2° 48.5° - - -
2/26 11:20pm 94 2 G 4 52° 93% - - 50° 58.2° 48.5° - - -
2/26 11:10pm 109 2 G 4 52° 93% - - 50° 58.2° 48.5° - - -
2/26 11:00pm 163 1 G 1 52° 92% - - 50° 58.2° 48.5° - - -
2/26 10:50pm 172 2 G 3 52° 89% - - 49° 58.2° 48.5° - - -
2/26 10:40pm 183 1 G 2 52° 87% - - 49° 58.2° 48.5° - - -
2/26 10:30pm 108 1 G 2 52° 86% - - 48° 58.2° 48.5° - - -
2/26 10:20pm 15 1 G 3 52° 83% - - 47° 58.2° 48.5° - - -
2/26 10:10pm 50 1 G 3 52° 87% - - 49° 58.2° 48.5° - - -
2/26 10:00pm 22 1 G 3 52° 84% - - 47° 58.2° 48.5° - - -
2/26 9:50pm 327 2 G 3 52° 83% - - 47° 58.2° 48.5° - - -
2/26 9:40pm 330 2 G 3 52° 86% - - 48° 58.2° 48.5° - - -
2/26 9:30pm 278 0 G 1 52° 90% - - 49° 58.2° 48.5° - - -
2/26 9:20pm 123 0 G 1 52° 89% - - 49° 58.2° 48.5° - - -
2/26 9:10pm 165 0 G 1 52° 88% - - 49° 58.2° 48.5° - - -
2/26 9:00pm 199 0 G 1 52° 88% - - 49° 58.2° 48.5° - - -
2/26 8:50pm 167 1 G 3 52° 88% - - 49° 58.2° 48.5° - - -
2/26 8:40pm 187 1 G 3 52° 87% - - 49° 58.2° 48.5° - - -
2/26 8:30pm 203 2 G 4 53° 87% - - 49° 58.2° 48.5° - - -
2/26 8:20pm 206 1 G 3 53° 86% - - 49° 58.2° 48.5° - - -
2/26 8:10pm 194 1 G 4 53° 86% - - 49° 58.2° 48.5° - - -
2/26 8:00pm 193 3 G 6 53° 85% - - 48° 58.2° 48.5° - - -
2/26 7:50pm 208 3 G 5 53° 85% - - 48° 58.2° 48.5° - - -
2/26 7:40pm 217 3 G 6 53° 84% - - 48° 58.2° 48.5° - - -
2/26 7:30pm 201 3 G 5 53° 84% - - 48° 58.2° 48.5° - - -
2/26 7:20pm 198 3 G 6 53° 83% - - 48° 58.2° 48.5° - - -
2/26 7:10pm 209 3 G 5 53° 84% - - 48° 58.2° 48.5° - - -
2/26 7:00pm 212 2 G 5 53° 83% - - 48° 58.2° 48.5° - - -
2/26 6:50pm 212 4 G 8 53° 83% - - 48° 58.2° 48.5° - - -
2/26 6:40pm 211 6 G 9 54° 83% - - 48° 58.2° 48.5° - - -
2/26 6:30pm 212 5 G 10 54° 82% - - 48° 58.2° 48.5° - - -
2/26 6:20pm 210 5 G 9 54° 81% - - 48° 58.2° 48.5° - - -
2/26 6:10pm 216 6 G 12 54° 77% - - 47° 58.2° 48.5° - - -
2/26 6:00pm 219 6 G 11 54° 77% - - 47° 58.2° 48.5° - - -
2/26 5:50pm 215 7 G 12 55° 77% - - 47° 58.2° 48.5° - - -
2/26 5:40pm 232 6 G 10 55° 74% - - 47° 58.2° 48.5° - - -
2/26 5:30pm 228 6 G 10 55° 72% - - 46° 58.2° 48.5° - - -
2/26 5:20pm 220 6 G 12 55° 71% - - 46° 58.2° 48.5° - - -
2/26 5:10pm 230 7 G 13 56° 72% - - 47° 58.2° 48.5° - - -
2/26 5:00pm 224 7 G 13 56° 71% - - 47° 58.2° 48.5° - - -